Time;durP1;ratioP1;P1;durP2;ratioP2;P2;SDS_P1;SDS_P2;PMS_P1;PMS_P2;Temp;Humidity;BMP_temperature;BMP_pressure;BME280_temperature;BME280_humidity;BME280_pressure;Samples;Min_cycle;Max_cycle;Signal;HPM_P1;HPM_P2
2023/03/16 00:04:29;;;;;;;25.13;13.02;;;;;;;7.06;100.00;99551.41;10416128;28;20041;-79
2023/03/16 00:09:30;;;;;;;26.38;12.38;;;;;;;7.49;100.00;99642.72;10415873;28;20132;-79
2023/03/16 00:14:34;;;;;;;33.45;13.38;;;;;;;7.35;100.00;99618.75;10415603;28;20124;-79
2023/03/16 00:19:35;;;;;;;25.92;14.40;;;;;;;7.28;100.00;99616.78;10414673;28;20029;-79
2023/03/16 00:24:36;;;;;;;23.17;12.60;;;;;;;7.40;100.00;99650.81;10414500;28;20417;-79
2023/03/16 00:29:37;;;;;;;22.70;13.13;;;;;;;7.17;100.00;99624.19;10414144;28;20045;-78
2023/03/16 00:34:37;;;;;;;21.92;13.63;;;;;;;6.75;100.00;99569.69;10415103;28;20069;-79
2023/03/16 00:39:39;;;;;;;26.13;14.32;;;;;;;6.74;100.00;99571.50;10414121;28;20045;-79
2023/03/16 00:44:43;;;;;;;26.63;14.98;;;;;;;7.20;100.00;99634.44;10414392;28;20057;-78
2023/03/16 00:49:44;;;;;;;27.90;14.60;;;;;;;7.27;100.00;99643.38;10414375;28;20079;-78
2023/03/16 00:54:46;;;;;;;26.30;14.38;;;;;;;6.74;100.00;99566.22;10414411;28;20080;-79
2023/03/16 00:59:47;;;;;;;28.85;15.15;;;;;;;7.25;100.00;99666.47;10413681;28;20047;-79
2023/03/16 01:04:48;;;;;;;31.42;14.75;;;;;;;6.77;100.00;99589.66;10413793;28;20045;-79
2023/03/16 01:09:49;;;;;;;31.90;13.38;;;;;;;6.72;100.00;99570.81;10413682;28;20087;-79
2023/03/16 01:14:50;;;;;;;31.23;13.90;;;;;;;6.73;100.00;99569.00;10413765;28;20091;-78
2023/03/16 01:19:50;;;;;;;23.50;14.02;;;;;;;7.24;100.00;99655.09;10413446;28;20057;-80
2023/03/16 01:24:51;;;;;;;23.85;13.13;;;;;;;7.07;100.00;99642.84;10412676;28;20076;-79
2023/03/16 01:29:52;;;;;;;24.08;13.32;;;;;;;7.04;100.00;99624.69;10412991;28;20052;-79
2023/03/16 01:34:52;;;;;;;24.92;13.13;;;;;;;7.13;100.00;99650.13;10413522;28;20041;-78
2023/03/16 01:39:53;;;;;;;23.77;12.52;;;;;;;7.19;100.00;99649.47;10413304;28;20037;-79
2023/03/16 01:45:00;;;;;;;30.95;13.73;;;;;;;7.22;100.00;99645.69;10412309;28;20505;-81
2023/03/16 01:50:01;;;;;;;24.65;13.52;;;;;;;6.96;100.00;99600.91;10412731;28;20489;-81
2023/03/16 01:55:07;;;;;;;35.05;14.00;;;;;;;7.23;100.00;99636.75;10423744;28;20123;-81
2023/03/16 02:00:18;;;;;;;22.63;12.95;;;;;;;7.17;100.00;99638.22;10412005;28;20616;-80
2023/03/16 02:05:30;;;;;;;19.48;13.20;;;;;;;7.16;100.00;99627.84;10411646;28;20070;-81
2023/03/16 02:10:32;;;;;;;22.95;14.25;;;;;;;6.62;100.00;99546.41;10433277;28;20047;-81
2023/03/16 02:15:34;;;;;;;24.98;13.32;;;;;;;7.10;100.00;99631.97;10419085;28;20052;-81
2023/03/16 02:20:55;;;;;;;23.38;12.32;;;;;;;6.93;100.00;99588.84;10420150;28;20044;-82
2023/03/16 02:26:11;;;;;;;20.75;12.60;;;;;;;7.25;100.00;99659.38;10419606;28;20488;-81
2023/03/16 02:31:11;;;;;;;17.00;12.70;;;;;;;6.65;100.00;99577.75;10419403;28;20536;-81
2023/03/16 02:36:18;;;;;;;20.40;12.57;;;;;;;6.65;100.00;99582.22;10419660;28;20071;-80
2023/03/16 02:41:20;;;;;;;20.05;12.65;;;;;;;7.13;100.00;99659.88;10418814;28;20044;-81
2023/03/16 02:46:25;;;;;;;21.70;12.68;;;;;;;7.15;100.00;99640.22;10421557;28;20095;-83
2023/03/16 02:51:26;;;;;;;23.95;12.65;;;;;;;7.00;100.00;99628.63;10431439;28;20060;-85
2023/03/16 02:56:27;;;;;;;18.02;12.60;;;;;;;6.77;100.00;99576.47;10440116;28;20394;-81
2023/03/16 03:01:27;;;;;;;23.52;13.85;;;;;;;6.93;100.00;99586.22;10460282;28;20041;-79
2023/03/16 03:06:28;;;;;;;20.42;14.32;;;;;;;6.88;100.00;99566.56;10458727;28;20037;-78
2023/03/16 03:11:29;;;;;;;22.92;13.95;;;;;;;7.20;100.00;99635.25;10459084;28;20051;-78
2023/03/16 03:16:30;;;;;;;18.95;13.10;;;;;;;6.96;100.00;99600.91;10458584;28;20051;-78
2023/03/16 03:21:31;;;;;;;22.98;13.90;;;;;;;7.15;100.00;99629.66;10458610;28;20045;-79
2023/03/16 03:26:31;;;;;;;19.52;13.18;;;;;;;7.22;100.00;99640.41;10455909;28;20128;-82
2023/03/16 03:31:32;;;;;;;22.95;13.45;;;;;;;7.30;100.00;99635.13;10444905;28;20110;-80
2023/03/16 03:36:33;;;;;;;22.45;13.13;;;;;;;6.80;100.00;99562.94;10458497;28;20043;-80
2023/03/16 03:41:34;;;;;;;18.73;12.00;;;;;;;7.24;100.00;99631.31;10440302;28;20128;-83
2023/03/16 03:46:35;;;;;;;21.70;13.90;;;;;;;7.24;100.00;99628.69;10416834;28;20088;-90
2023/03/16 03:51:36;;;;;;;23.00;14.40;;;;;;;6.69;100.00;99542.13;10416429;28;20064;-86
2023/03/16 03:56:37;;;;;;;19.77;13.75;;;;;;;6.76;100.00;99548.41;10415653;28;20551;-88
2023/03/16 04:01:38;;;;;;;18.65;13.48;;;;;;;7.30;100.00;99640.41;10416094;28;20046;-77
2023/03/16 04:06:38;;;;;;;20.48;12.45;;;;;;;6.69;100.00;99539.47;10414484;28;20128;-76
2023/03/16 04:11:39;;;;;;;22.23;13.43;;;;;;;7.34;100.00;99656.75;10414137;28;20116;-78
2023/03/16 04:16:42;;;;;;;25.95;14.10;;;;;;;7.32;100.00;99643.69;10416064;28;20096;-81
2023/03/16 04:21:43;;;;;;;23.83;13.23;;;;;;;6.93;100.00;99585.38;10415297;28;20038;-77
2023/03/16 04:26:44;;;;;;;21.35;13.70;;;;;;;7.32;100.00;99659.53;10414635;28;20513;-78
2023/03/16 04:31:45;;;;;;;18.77;12.45;;;;;;;6.90;100.00;99575.16;10414233;28;20072;-78
2023/03/16 04:36:46;;;;;;;20.52;11.77;;;;;;;7.40;100.00;99648.16;10407880;28;20061;-77
2023/03/16 04:41:48;;;;;;;18.85;12.05;;;;;;;7.45;100.00;99651.13;10414334;28;20068;-78
2023/03/16 04:46:49;;;;;;;16.45;10.82;;;;;;;7.39;100.00;99638.56;10438392;28;20157;-76
2023/03/16 04:51:49;;;;;;;15.77;11.23;;;;;;;7.14;100.00;99598.13;10428941;28;20041;-85
2023/03/16 04:56:51;;;;;;;23.45;11.85;;;;;;;7.48;100.00;99640.25;10414670;28;20156;-84
2023/03/16 05:01:52;;;;;;;18.73;11.45;;;;;;;7.58;100.00;99656.75;10412847;28;20038;-84
2023/03/16 05:06:53;;;;;;;17.58;12.30;;;;;;;7.57;100.00;99652.47;10413748;28;20444;-82
2023/03/16 05:11:53;;;;;;;15.57;12.18;;;;;;;7.11;100.00;99583.41;10413879;28;20099;-83
2023/03/16 05:16:54;;;;;;;16.95;11.43;;;;;;;7.54;100.00;99655.44;10413967;28;20571;-81
2023/03/16 05:21:55;;;;;;;16.52;10.98;;;;;;;7.12;100.00;99576.31;10413879;28;20041;-82
2023/03/16 05:26:56;;;;;;;17.98;11.68;;;;;;;7.60;100.00;99656.56;10413306;28;20508;-84
2023/03/16 05:31:58;;;;;;;25.63;11.73;;;;;;;7.59;100.00;99655.75;10413684;28;20116;-84
2023/03/16 05:36:59;;;;;;;17.70;12.13;;;;;;;7.52;100.00;99646.84;10413123;28;20183;-84
2023/03/16 05:41:59;;;;;;;20.67;11.27;;;;;;;7.48;100.00;99608.53;10413347;28;20616;-84
2023/03/16 05:47:00;;;;;;;17.50;11.68;;;;;;;7.59;100.00;99608.19;10419179;28;20152;-83
2023/03/16 05:52:03;;;;;;;23.60;12.85;;;;;;;7.63;100.00;99613.94;10421213;28;20048;-83
2023/03/16 05:57:05;;;;;;;18.15;11.90;;;;;;;7.41;100.00;99570.53;10421081;28;20056;-83
2023/03/16 06:02:09;;;;;;;20.42;12.27;;;;;;;7.64;100.00;99600.59;10421361;28;20049;-83
2023/03/16 06:07:11;;;;;;;19.80;12.55;;;;;;;7.92;100.00;99634.56;10421247;28;20072;-83
2023/03/16 06:12:12;;;;;;;17.90;12.52;;;;;;;7.86;100.00;99629.97;10420478;28;20041;-83
2023/03/16 06:17:13;;;;;;;19.90;12.93;;;;;;;7.48;100.00;99568.91;10419740;28;20049;-83
2023/03/16 06:22:13;;;;;;;19.90;13.23;;;;;;;7.39;100.00;99559.31;10420000;28;20060;-83
2023/03/16 06:27:14;;;;;;;18.40;13.07;;;;;;;7.98;100.00;99626.78;10419927;28;20053;-83
2023/03/16 06:32:15;;;;;;;23.20;14.55;;;;;;;8.00;100.00;99624.00;10419643;28;20059;-82
2023/03/16 06:37:15;;;;;;;20.00;13.50;;;;;;;7.92;100.00;99619.53;10418743;28;20519;-82
2023/03/16 06:42:16;;;;;;;21.08;12.55;;;;;;;7.91;100.00;99623.19;10419362;28;20037;-82
2023/03/16 06:47:18;;;;;;;19.15;12.68;;;;;;;7.98;100.00;99633.91;10418990;28;20417;-84
2023/03/16 06:52:18;;;;;;;19.75;13.45;;;;;;;8.04;100.00;99632.41;10418588;28;20540;-83
2023/03/16 06:57:19;;;;;;;20.05;12.50;;;;;;;7.60;100.00;99549.06;10418154;28;20064;-83
2023/03/16 07:02:22;;;;;;;19.55;13.73;;;;;;;7.91;100.00;99601.19;10418717;28;20401;-83
2023/03/16 07:07:23;;;;;;;19.15;12.80;;;;;;;8.07;100.00;99614.38;10418266;28;20044;-83
2023/03/16 07:12:24;;;;;;;19.95;13.27;;;;;;;8.14;100.00;99618.00;10418790;28;20512;-82
2023/03/16 07:17:24;;;;;;;19.60;12.45;;;;;;;8.24;100.00;99620.44;10418015;28;20047;-82
2023/03/16 07:22:25;;;;;;;16.25;11.80;;;;;;;8.12;100.00;99566.25;10417470;28;20589;-82
2023/03/16 07:27:27;;;;;;;20.38;13.43;;;;;;;8.45;99.38;99604.84;10416953;28;20053;-81
2023/03/16 07:32:28;;;;;;;26.80;15.35;;;;;;;8.62;99.01;99618.84;10417182;28;20041;-82
2023/03/16 07:37:29;;;;;;;22.65;14.27;;;;;;;8.59;99.05;99619.19;10416592;28;20030;-82
2023/03/16 07:42:30;;;;;;;21.33;13.57;;;;;;;8.39;99.01;99559.72;10416857;28;20132;-83
2023/03/16 07:47:32;;;;;;;21.27;13.88;;;;;;;8.79;98.24;99616.91;10417156;28;20187;-83
2023/03/16 07:52:33;;;;;;;25.73;15.18;;;;;;;8.78;98.59;99615.28;10417565;28;20037;-83
2023/03/16 07:57:34;;;;;;;20.70;14.50;;;;;;;8.70;98.46;99599.41;10415955;28;20041;-84
2023/03/16 08:02:34;;;;;;;23.85;15.68;;;;;;;8.84;98.46;99624.34;10416252;28;20401;-83
2023/03/16 08:07:35;;;;;;;23.63;16.52;;;;;;;8.60;98.71;99599.66;10415124;28;20045;-82
2023/03/16 08:12:36;;;;;;;29.52;18.83;;;;;;;8.84;98.69;99624.34;10415967;28;20137;-82
2023/03/16 08:17:40;;;;;;;28.60;18.50;;;;;;;8.83;98.96;99633.31;10415570;28;20448;-82
2023/03/16 08:22:45;;;;;;;27.60;19.10;;;;;;;8.77;98.99;99623.41;10415571;28;20034;-81
2023/03/16 08:27:46;;;;;;;44.88;27.38;;;;;;;8.86;99.01;99652.31;10415284;28;20198;-82
2023/03/16 08:32:47;;;;;;;36.20;23.90;;;;;;;8.93;98.71;99633.06;10414437;28;20041;-82
2023/03/16 08:37:48;;;;;;;29.23;19.02;;;;;;;8.54;98.85;99550.03;10414470;28;20041;-82
2023/03/16 08:42:49;;;;;;;33.08;20.80;;;;;;;8.98;98.39;99620.13;10414410;28;20049;-81
2023/03/16 08:47:50;;;;;;;42.75;26.33;;;;;;;9.02;98.63;99611.66;10414377;28;20444;-81
2023/03/16 08:52:51;;;;;;;37.08;22.63;;;;;;;9.05;98.68;99619.25;10414353;28;20049;-81
2023/03/16 08:57:51;;;;;;;37.25;21.35;;;;;;;8.76;98.69;99561.66;10413909;28;20044;-82
2023/03/16 09:02:53;;;;;;;35.05;21.70;;;;;;;8.89;99.23;99612.22;10413910;28;20045;-81
2023/03/16 09:07:54;;;;;;;34.72;23.15;;;;;;;8.95;98.84;99589.53;10413165;28;20095;-82
2023/03/16 09:12:55;;;;;;;38.30;25.35;;;;;;;9.13;98.44;99590.06;10414173;28;20498;-82
2023/03/16 09:17:58;;;;;;;47.13;26.83;;;;;;;9.12;97.56;99572.50;10412761;28;20044;-80
2023/03/16 09:23:00;;;;;;;40.50;25.65;;;;;;;9.12;97.57;99580.47;10413776;28;20041;-82
2023/03/16 09:28:01;;;;;;;47.92;28.05;;;;;;;9.19;97.89;99595.66;10413179;28;20041;-82
2023/03/16 09:33:03;;;;;;;44.92;28.38;;;;;;;9.11;98.50;99584.09;10412758;28;20037;-81
2023/03/16 09:38:03;;;;;;;54.00;30.80;;;;;;;8.56;99.02;99518.13;10413104;28;20037;-81
2023/03/16 09:43:43;;;;;;;51.55;30.52;;;;;;;8.85;100.00;99578.31;10413740;28;20061;-82
2023/03/16 09:48:46;;;;;;;37.90;24.40;;;;;;;9.14;98.97;99583.75;10412889;28;20057;-82
2023/03/16 09:53:50;;;;;;;40.88;24.80;;;;;;;8.69;97.80;99502.47;10412851;28;20041;-81
2023/03/16 09:58:51;;;;;;;45.93;25.47;;;;;;;8.95;97.82;99563.03;10413576;28;20068;-82
2023/03/16 10:04:10;;;;;;;46.70;26.20;;;;;;;8.92;98.94;99563.38;10412577;28;20280;-82
2023/03/16 10:09:28;;;;;;;46.42;25.77;;;;;;;9.13;98.51;99590.06;10411822;28;20041;-82
2023/03/16 10:14:33;;;;;;;38.30;24.95;;;;;;;9.29;98.25;99591.75;10412515;28;20038;-82
2023/03/16 10:19:58;;;;;;;41.63;24.95;;;;;;;9.44;97.01;99585.66;10412805;28;20045;-81
2023/03/16 10:25:26;;;;;;;41.38;25.33;;;;;;;9.44;97.62;99573.22;10411663;28;20048;-82
2023/03/16 10:30:33;;;;;;;35.30;24.75;;;;;;;9.27;96.60;99558.47;10413297;28;20075;-81
2023/03/16 10:35:58;;;;;;;40.42;25.40;;;;;;;9.53;95.66;99579.28;10420404;28;20057;-81
2023/03/16 10:40:59;;;;;;;45.55;27.23;;;;;;;9.17;95.85;99518.16;10419751;28;20447;-81
2023/03/16 10:46:01;;;;;;;38.03;24.75;;;;;;;9.65;95.38;99580.50;10419416;28;20056;-82
2023/03/16 10:51:07;;;;;;;42.03;24.25;;;;;;;9.34;94.66;99506.41;10418966;28;20038;-82
2023/03/16 10:56:31;;;;;;;40.08;24.92;;;;;;;9.91;94.36;99574.75;10418162;28;20041;-82
2023/03/16 11:01:32;;;;;;;34.58;24.15;;;;;;;9.91;94.23;99565.97;10418046;28;20413;-82
2023/03/16 11:06:33;;;;;;;38.63;24.88;;;;;;;10.09;94.20;99571.75;10418228;28;20041;-83
2023/03/16 11:11:35;;;;;;;37.15;24.67;;;;;;;10.06;94.12;99578.25;10418469;28;20509;-82
2023/03/16 11:16:45;;;;;;;35.13;24.00;;;;;;;10.00;94.14;99568.34;10419277;28;20068;-82
2023/03/16 11:22:28;;;;;;;43.88;24.33;;;;;;;10.28;93.68;99591.63;10417282;28;20037;-82
2023/03/16 11:27:34;;;;;;;40.75;24.30;;;;;;;10.23;92.92;99575.38;10415342;28;20049;-82
2023/03/16 11:32:40;;;;;;;41.92;23.95;;;;;;;10.37;92.69;99582.53;10417853;28;20037;-83
2023/03/16 11:37:59;;;;;;;35.83;24.05;;;;;;;10.39;93.02;99587.69;10417064;28;20037;-81
2023/03/16 11:43:37;;;;;;;35.55;23.83;;;;;;;10.47;91.83;99593.72;10416553;28;20049;-81
2023/03/16 11:48:56;;;;;;;35.92;23.65;;;;;;;10.50;92.44;99597.84;10416588;28;20444;-80
2023/03/16 11:54:16;;;;;;;42.83;25.15;;;;;;;10.47;92.24;99600.88;10416128;28;20072;-81
2023/03/16 11:59:29;;;;;;;37.17;24.92;;;;;;;10.20;92.59;99594.31;10416435;28;20042;-81
2023/03/16 12:04:48;;;;;;;35.55;24.17;;;;;;;10.46;92.67;99580.59;10416196;28;20394;-81
2023/03/16 12:10:25;;;;;;;36.35;22.58;;;;;;;10.81;90.91;99576.31;10416001;28;20159;-80
2023/03/16 12:15:34;;;;;;;37.65;22.27;;;;;;;10.90;89.86;99564.56;10397486;28;20056;-80
2023/03/16 12:20:46;;;;;;;34.75;22.33;;;;;;;11.26;89.78;99568.16;10414408;28;20500;-81
2023/03/16 12:25:49;;;;;;;34.42;21.80;;;;;;;10.95;89.84;99503.69;10414834;28;20041;-80
2023/03/16 12:30:53;;;;;;;43.13;25.35;;;;;;;11.55;88.96;99565.34;10415013;28;20548;-80
2023/03/16 12:36:18;;;;;;;39.35;23.75;;;;;;;11.64;87.95;99566.84;10414365;28;20034;-80
2023/03/16 12:41:47;;;;;;;36.40;22.23;;;;;;;11.39;88.20;99537.16;10414899;28;20073;-82
2023/03/16 12:46:55;;;;;;;38.95;25.48;;;;;;;11.65;87.78;99570.31;10435577;28;20085;-78
2023/03/16 12:52:01;;;;;;;41.13;23.88;;;;;;;11.58;87.87;99556.16;10412710;28;20037;-79
2023/03/16 12:57:07;;;;;;;42.63;25.15;;;;;;;11.79;87.61;99560.59;10413100;28;20114;-79
2023/03/16 13:02:23;;;;;;;35.23;22.93;;;;;;;11.64;86.39;99524.25;10413566;28;20041;-78
2023/03/16 13:07:27;;;;;;;35.38;23.00;;;;;;;11.16;86.99;99464.81;10412806;28;20092;-78
2023/03/16 13:12:37;;;;;;;44.20;23.73;;;;;;;11.80;86.46;99571.03;10413980;28;20037;-79
2023/03/16 13:17:38;;;;;;;37.17;22.85;;;;;;;11.84;86.88;99558.16;10412975;28;20497;-80
2023/03/16 13:22:44;;;;;;;37.38;21.60;;;;;;;11.52;85.75;99493.91;10413554;28;20084;-80
2023/03/16 13:27:46;;;;;;;37.88;22.85;;;;;;;11.47;85.97;99475.03;10415960;28;20489;-84
2023/03/16 13:32:51;;;;;;;38.78;22.65;;;;;;;11.99;86.06;99558.88;10434513;28;20124;-82
2023/03/16 13:37:53;;;;;;;34.78;23.27;;;;;;;11.96;85.41;99548.63;10455073;28;20044;-81
2023/03/16 13:42:56;;;;;;;35.45;22.52;;;;;;;12.09;84.84;99566.53;10437645;28;20563;-81
2023/03/16 13:48:00;;;;;;;37.33;22.70;;;;;;;11.98;85.15;99559.91;10460616;28;20066;-80
2023/03/16 13:53:03;;;;;;;33.30;22.27;;;;;;;11.87;84.71;99545.28;10468844;28;20036;-81
2023/03/16 13:58:04;;;;;;;49.65;27.00;;;;;;;11.88;85.24;99559.44;10466141;28;20087;-81
2023/03/16 14:03:16;;;;;;;41.55;24.52;;;;;;;11.32;84.47;99482.31;10468171;28;20041;-81
2023/03/16 14:08:20;;;;;;;53.47;29.85;;;;;;;11.66;85.70;99572.75;10472778;28;20139;-81
2023/03/16 14:13:24;;;;;;;44.30;29.25;;;;;;;11.04;85.85;99493.75;10487412;28;20045;-81
2023/03/16 14:18:47;;;;;;;47.35;28.73;;;;;;;11.48;85.33;99564.44;10422311;28;20050;-81
2023/03/16 14:23:58;;;;;;;44.05;28.60;;;;;;;11.16;86.30;99571.97;10455532;28;20049;-82
2023/03/16 14:29:14;;;;;;;127.53;69.35;;;;;;;10.55;86.93;99496.34;10456148;28;20041;-81
2023/03/16 14:34:40;;;;;;;86.03;47.38;;;;;;;10.85;87.82;99582.06;10438308;28;20532;-81
2023/03/16 14:39:41;;;;;;;55.00;32.40;;;;;;;10.61;88.14;99592.03;10454645;28;20512;-81
2023/03/16 14:44:43;;;;;;;46.47;26.83;;;;;;;10.45;88.61;99603.69;10435309;28;20057;-83
2023/03/16 14:49:44;;;;;;;38.92;25.30;;;;;;;9.75;88.55;99495.34;10419035;28;20588;-82
2023/03/16 14:54:45;;;;;;;46.63;25.83;;;;;;;9.99;88.95;99564.06;10430695;28;20044;-80
2023/03/16 14:59:46;;;;;;;54.13;27.15;;;;;;;9.53;89.59;99529.72;10405730;28;20489;-77
2023/03/16 15:04:48;;;;;;;50.78;26.90;;;;;;;9.74;89.99;99607.75;10426213;28;20036;-76
2023/03/16 15:09:51;;;;;;;43.30;23.70;;;;;;;9.16;90.25;99556.25;10430879;28;20128;-79
2023/03/16 15:20:16;;;;;;;44.45;26.13;;;;;;;9.28;91.91;99626.38;10443798;28;20052;-77
2023/03/16 15:25:35;;;;;;;41.08;27.63;;;;;;;8.76;92.60;99574.06;10443194;28;20037;-76
2023/03/16 15:30:36;;;;;;;48.53;28.15;;;;;;;8.07;92.25;99497.16;10438363;28;20110;-76
2023/03/16 15:35:38;;;;;;;43.55;26.92;;;;;;;8.36;92.77;99563.50;10427124;28;20045;-76
2023/03/16 15:40:41;;;;;;;49.30;29.52;;;;;;;8.75;93.08;99642.09;10428642;28;20501;-78
2023/03/16 15:45:43;;;;;;;54.95;32.30;;;;;;;8.71;93.44;99650.59;10428248;28;20083;-79
2023/03/16 15:50:51;;;;;;;53.78;30.63;;;;;;;8.49;93.30;99628.31;10428209;28;20497;-78
2023/03/16 15:56:00;;;;;;;48.95;28.30;;;;;;;8.25;93.17;99619.44;10415540;28;20045;-80
2023/03/16 16:01:03;;;;;;;56.67;31.08;;;;;;;7.82;93.51;99579.25;10415754;28;20539;-80
2023/03/16 16:06:09;;;;;;;42.13;28.10;;;;;;;8.21;94.19;99657.84;10414794;28;20532;-81
2023/03/16 16:11:23;;;;;;;53.97;28.27;;;;;;;8.14;94.60;99678.03;10415587;28;20501;-80
2023/03/16 16:16:27;;;;;;;41.22;26.40;;;;;;;7.93;94.33;99676.75;10415859;28;20073;-81
2023/03/16 16:21:30;;;;;;;45.17;28.65;;;;;;;7.19;94.21;99582.63;10415272;28;20063;-80
2023/03/16 16:26:41;;;;;;;58.05;31.17;;;;;;;7.16;94.97;99590.88;10414706;28;20037;-79
2023/03/16 16:31:42;;;;;;;51.08;29.05;;;;;;;6.97;94.66;99587.56;10413924;28;20041;-79
2023/03/16 16:36:43;;;;;;;61.63;35.50;;;;;;;7.06;94.48;99598.94;10414136;28;20081;-80
2023/03/16 16:41:45;;;;;;;63.92;33.75;;;;;;;6.53;94.44;99542.91;10414097;28;20044;-80
2023/03/16 16:46:48;;;;;;;57.25;31.38;;;;;;;7.32;94.76;99686.78;10415069;28;20448;-78
2023/03/16 16:51:50;;;;;;;51.72;31.27;;;;;;;6.68;95.13;99595.91;10422337;28;20041;-79
2023/03/16 16:56:56;;;;;;;53.85;30.58;;;;;;;6.77;94.88;99623.97;10413129;28;20049;-82
2023/03/16 17:01:59;;;;;;;54.90;29.73;;;;;;;6.90;94.89;99663.09;10413076;28;20033;-82
2023/03/16 17:07:00;;;;;;;49.03;29.42;;;;;;;7.02;94.83;99684.75;10420254;28;20048;-83
2023/03/16 17:12:01;;;;;;;49.63;30.88;;;;;;;7.01;94.90;99697.13;10450136;28;20056;-83
2023/03/16 17:17:11;;;;;;;40.33;26.30;;;;;;;6.97;95.53;99693.16;10449998;28;20521;-83
2023/03/16 17:22:29;;;;;;;50.97;30.85;;;;;;;6.86;96.00;99696.91;10432798;28;20116;-79
2023/03/16 17:27:31;;;;;;;49.80;27.70;;;;;;;6.69;95.11;99689.09;10453906;28;20037;-79
2023/03/16 17:32:32;;;;;;;52.92;33.00;;;;;;;6.28;95.28;99667.78;10444154;28;20096;-78
2023/03/16 17:37:33;;;;;;;56.97;29.67;;;;;;;6.00;95.67;99609.97;10412016;28;20047;-79
2023/03/16 17:42:34;;;;;;;62.22;35.20;;;;;;;6.09;96.51;99624.03;10423854;28;20087;-78
2023/03/16 17:47:38;;;;;;;48.78;28.88;;;;;;;6.40;96.25;99696.41;10425795;28;20049;-80
2023/03/16 17:52:39;;;;;;;55.65;31.02;;;;;;;5.98;96.03;99677.84;10437153;28;20037;-79
2023/03/16 17:57:40;;;;;;;67.20;37.95;;;;;;;6.09;96.16;99695.22;10434862;28;20048;-79
2023/03/16 18:02:52;;;;;;;76.88;40.28;;;;;;;6.04;97.85;99702.75;10424704;28;20086;-80
2023/03/16 18:07:57;;;;;;;123.28;55.33;;;;;;;5.91;97.89;99688.13;10428547;28;20053;-79
2023/03/16 18:13:05;;;;;;;117.05;51.90;;;;;;;5.83;98.67;99672.25;10425790;28;20034;-80
2023/03/16 18:18:06;;;;;;;152.00;63.00;;;;;;;5.72;97.78;99694.44;10425318;28;20532;-78
2023/03/16 18:23:19;;;;;;;139.82;59.97;;;;;;;5.59;100.00;99693.97;10428000;28;20067;-78
2023/03/16 18:28:22;;;;;;;94.60;47.70;;;;;;;5.16;99.09;99648.16;10458497;28;20048;-79
2023/03/16 18:33:40;;;;;;;113.35;51.20;;;;;;;5.57;99.47;99700.41;10440837;28;20497;-78
2023/03/16 18:38:47;;;;;;;90.03;43.78;;;;;;;4.92;99.31;99611.91;10450289;28;20068;-78
2023/03/16 18:43:49;;;;;;;99.63;45.30;;;;;;;5.25;99.50;99688.56;10424935;28;20118;-79
2023/03/16 18:48:53;;;;;;;91.28;47.30;;;;;;;5.05;99.46;99666.81;10425805;28;20049;-77
2023/03/16 18:53:54;;;;;;;78.57;39.90;;;;;;;5.09;98.51;99673.47;10431040;28;20045;-78
2023/03/16 18:58:56;;;;;;;65.30;36.20;;;;;;;4.99;98.84;99670.88;10419116;28;20045;-78
2023/03/16 19:03:59;;;;;;;55.10;32.50;;;;;;;5.04;98.16;99699.38;10418783;28;20082;-78
2023/03/16 19:09:13;;;;;;;69.63;35.13;;;;;;;4.87;99.15;99663.34;10423626;28;20096;-78
2023/03/16 19:14:21;;;;;;;54.08;31.63;;;;;;;4.96;98.02;99697.47;10439963;28;20041;-78
2023/03/16 19:19:23;;;;;;;63.60;32.72;;;;;;;4.90;98.21;99713.88;10421272;28;20049;-77
2023/03/16 19:24:32;;;;;;;52.72;30.52;;;;;;;4.78;97.83;99694.81;10459812;28;20516;-77
2023/03/16 19:29:34;;;;;;;52.70;31.35;;;;;;;4.56;97.86;99651.31;10458885;28;20036;-77
2023/03/16 19:34:35;;;;;;;59.33;28.65;;;;;;;4.73;97.71;99694.44;10442405;28;20056;-78
2023/03/16 19:39:36;;;;;;;57.28;33.95;;;;;;;4.60;97.85;99677.31;10416762;28;20037;-78
2023/03/16 19:44:36;;;;;;;51.63;30.65;;;;;;;4.71;98.08;99690.31;10417310;28;20056;-78
2023/03/16 19:49:37;;;;;;;61.17;31.50;;;;;;;4.34;97.53;99641.19;10427848;28;20045;-77
2023/03/16 19:54:41;;;;;;;46.38;28.05;;;;;;;4.27;98.24;99626.97;10416893;28;20444;-77
2023/03/16 19:59:44;;;;;;;65.27;34.40;;;;;;;4.68;97.88;99695.84;10416113;28;20037;-77
2023/03/16 20:04:45;;;;;;;49.30;28.47;;;;;;;4.53;96.79;99693.69;10415209;28;20045;-79
2023/03/16 20:09:46;;;;;;;44.17;25.60;;;;;;;3.44;96.33;99537.50;10416067;28;20570;-79
2023/03/16 20:14:48;;;;;;;50.00;29.42;;;;;;;4.38;97.10;99694.31;10415786;28;20046;-79
2023/03/16 20:19:50;;;;;;;56.08;29.70;;;;;;;4.32;97.25;99701.81;10419491;28;20052;-79
2023/03/16 20:24:53;;;;;;;52.65;29.77;;;;;;;3.79;98.02;99612.19;10420774;28;20068;-79
2023/03/16 20:29:54;;;;;;;48.35;28.58;;;;;;;4.32;97.76;99700.97;10415316;28;20493;-79
2023/03/16 20:34:54;;;;;;;53.45;30.05;;;;;;;4.28;97.61;99705.69;10414404;28;20045;-79
2023/03/16 20:39:57;;;;;;;44.35;25.52;;;;;;;4.15;97.35;99702.53;10415101;28;20068;-80
2023/03/16 20:44:59;;;;;;;55.53;31.35;;;;;;;4.02;97.41;99709.91;10415202;28;20057;-79
2023/03/16 20:50:00;;;;;;;51.67;29.15;;;;;;;3.91;97.90;99703.00;10414562;28;20056;-79
2023/03/16 20:55:01;;;;;;;57.42;31.02;;;;;;;3.75;97.45;99706.22;10414834;28;20041;-79
2023/03/16 21:00:12;;;;;;;50.40;29.10;;;;;;;3.29;96.85;99678.03;10414029;28;20585;-79
2023/03/16 21:05:16;;;;;;;43.28;27.75;;;;;;;3.37;97.21;99720.16;10413545;28;20033;-78
2023/03/16 21:10:21;;;;;;;53.80;29.70;;;;;;;3.32;97.38;99709.25;10413982;28;20107;-80
2023/03/16 21:15:25;;;;;;;61.92;34.17;;;;;;;3.24;97.25;99711.75;10413155;28;20057;-79
2023/03/16 21:20:29;;;;;;;55.00;31.77;;;;;;;2.68;96.59;99637.91;10414126;28;20430;-79
2023/03/16 21:25:34;;;;;;;73.95;34.67;;;;;;;2.44;96.67;99627.75;10414015;28;20288;-79
2023/03/16 21:30:36;;;;;;;;;;;;;;;2.99;96.88;99713.88;10414364;28;20045;-79
2023/03/16 21:35:37;;;;;;;56.78;32.38;;;;;;;2.79;97.44;99720.91;10413625;28;19917;-79
2023/03/16 21:40:37;;;;;;;56.10;29.50;;;;;;;2.84;97.65;99718.72;10413079;28;20041;-79
2023/03/16 21:45:39;;;;;;;84.03;36.17;;;;;;;2.71;98.27;99687.47;10412302;28;20064;-79
2023/03/16 21:50:39;;;;;;;134.80;34.92;;;;;;;2.31;98.84;99621.13;10411735;28;20103;-79
2023/03/16 21:55:41;;;;;;;97.80;35.78;;;;;;;2.63;98.17;99724.03;10413238;28;20045;-79
2023/03/16 22:00:42;;;;;;;139.07;35.17;;;;;;;2.61;99.20;99727.75;10412760;28;20034;-79
2023/03/16 22:05:43;;;;;;;274.10;37.20;;;;;;;2.57;99.50;99713.22;10413144;28;20045;-78
2023/03/16 22:10:44;;;;;;;243.65;37.40;;;;;;;2.38;99.50;99682.50;10411786;28;20049;-78
2023/03/16 22:15:53;;;;;;;175.10;32.53;;;;;;;2.67;99.90;99717.53;10412528;28;20501;-78
2023/03/16 22:20:56;;;;;;;118.75;28.83;;;;;;;2.69;99.89;99709.53;10412868;28;20041;-78
2023/03/16 22:25:57;;;;;;;182.43;35.08;;;;;;;2.68;100.00;99695.59;10412274;28;20038;-78
2023/03/16 22:31:02;;;;;;;339.38;36.78;;;;;;;2.18;100.00;99616.06;10419370;28;20037;-78
2023/03/16 22:36:02;;;;;;;126.70;32.00;;;;;;;2.87;100.00;99709.72;10419276;28;20041;-78
2023/03/16 22:41:04;;;;;;;112.88;28.23;;;;;;;2.78;100.00;99707.91;10419193;28;20041;-78
2023/03/16 22:46:05;;;;;;;59.40;25.92;;;;;;;2.88;100.00;99711.41;10419869;28;20057;-78
2023/03/16 22:51:05;;;;;;;59.75;24.58;;;;;;;2.59;100.00;99669.34;10419297;28;20045;-78
2023/03/16 22:56:09;;;;;;;88.22;25.83;;;;;;;2.50;100.00;99658.69;10418401;28;20041;-78
2023/03/16 23:01:18;;;;;;;42.80;25.05;;;;;;;2.68;100.00;99694.75;10429155;28;20047;-77
2023/03/16 23:06:23;;;;;;;37.85;25.08;;;;;;;2.68;100.00;99713.94;10418207;28;20095;-77
2023/03/16 23:11:23;;;;;;;;;;;;;;;3.01;100.00;99732.97;10419053;28;20038;-78
2023/03/16 23:16:28;;;;;;;29.17;20.58;;;;;;;2.43;99.99;99649.72;10417768;28;20299;-77
2023/03/16 23:21:29;;;;;;;34.28;22.25;;;;;;;3.02;100.00;99728.53;10417609;28;20041;-77